createdAt,value
2022-10-06T00:00:10.209Z,78.75
2022-10-06T00:01:16.550Z,78.68
2022-10-06T00:02:21.297Z,78.62
2022-10-06T00:03:23.026Z,78.64
2022-10-06T00:04:27.470Z,78.59
2022-10-06T00:05:29.115Z,78.44
2022-10-06T00:06:32.087Z,78.39
2022-10-06T00:07:35.948Z,78.39
2022-10-06T00:08:39.127Z,78.15
2022-10-06T00:09:41.730Z,78.39
2022-10-06T00:10:43.398Z,78.48
2022-10-06T00:11:47.432Z,78.48
2022-10-06T00:12:51.046Z,78.47
2022-10-06T00:13:53.674Z,78.28
2022-10-06T00:14:55.209Z,78.15
2022-10-06T00:15:57.919Z,78.18
2022-10-06T00:16:59.571Z,78.15
2022-10-06T00:18:03.077Z,78.20
2022-10-06T00:19:04.676Z,78.08
2022-10-06T00:20:08.203Z,78.07
2022-10-06T00:21:10.255Z,77.94
2022-10-06T00:22:12.721Z,78.36
2022-10-06T00:23:14.485Z,78.14
2022-10-06T00:24:17.382Z,78.39
2022-10-06T00:25:21.113Z,78.30
2022-10-06T00:26:24.191Z,78.53
2022-10-06T00:27:34.587Z,78.43
2022-10-06T00:28:39.709Z,78.55
2022-10-06T00:29:42.260Z,78.46
2022-10-06T00:30:46.545Z,78.75
2022-10-06T00:31:48.134Z,78.74
2022-10-06T00:32:53.605Z,78.87
2022-10-06T00:33:56.483Z,78.87
2022-10-06T00:34:59.513Z,78.77
2022-10-06T00:36:01.155Z,78.97
2022-10-06T00:37:04.287Z,78.96
2022-10-06T00:38:11.248Z,78.94
2022-10-06T00:39:13.970Z,79.25
2022-10-06T00:40:16.640Z,79.17
2022-10-06T00:41:19.744Z,79.22
2022-10-06T00:42:23.530Z,79.28
2022-10-06T00:43:47.156Z,79.15
2022-10-06T00:44:49.141Z,79.20
2022-10-06T00:45:51.656Z,79.38
2022-10-06T00:46:56.280Z,79.42
2022-10-06T00:48:03.388Z,79.65
2022-10-06T00:49:10.015Z,79.55
2022-10-06T00:50:13.776Z,79.64
2022-10-06T00:51:15.742Z,79.55
2022-10-06T00:52:22.353Z,79.82
2022-10-06T00:53:27.445Z,79.74
2022-10-06T00:54:31.334Z,79.89
2022-10-06T00:55:32.885Z,79.86
2022-10-06T00:56:35.655Z,79.92
2022-10-06T00:57:39.280Z,80.07
2022-10-06T00:58:43.201Z,80.04
2022-10-06T00:59:44.867Z,80.08
2022-10-06T01:00:50.217Z,80.27
2022-10-06T01:02:00.255Z,80.35
2022-10-06T01:03:08.016Z,80.41
2022-10-06T01:04:14.118Z,80.47
2022-10-06T01:05:23.780Z,80.35
2022-10-06T01:06:25.377Z,80.42
2022-10-06T01:07:29.788Z,80.64
2022-10-06T01:08:32.625Z,80.77
2022-10-06T01:09:35.961Z,80.87
2022-10-06T01:10:37.717Z,80.95
2022-10-06T01:11:40.212Z,81.01
2022-10-06T01:12:41.767Z,80.91
2022-10-06T01:13:48.400Z,81.22
2022-10-06T01:14:49.915Z,80.93
2022-10-06T01:15:57.721Z,81.07
2022-10-06T01:17:09.420Z,81.13
2022-10-06T01:18:16.067Z,81.32
2022-10-06T01:19:35.708Z,81.49
2022-10-06T01:20:38.364Z,81.27
2022-10-06T01:21:45.827Z,81.67
2022-10-06T01:22:54.013Z,81.79
2022-10-06T01:23:57.058Z,81.94
2022-10-06T01:25:00.105Z,81.83
2022-10-06T01:26:07.146Z,82.01
2022-10-06T01:27:12.631Z,82.00
2022-10-06T01:28:15.034Z,82.06
2022-10-06T01:29:23.735Z,82.21
2022-10-06T01:30:28.384Z,82.17
2022-10-06T01:31:31.307Z,81.96
2022-10-06T01:32:35.294Z,82.27
2022-10-06T01:33:37.876Z,82.09
2022-10-06T01:34:39.414Z,82.07
2022-10-06T01:35:41.882Z,82.23
2022-10-06T01:36:43.390Z,82.12
2022-10-06T01:37:46.078Z,82.44
2022-10-06T01:38:55.338Z,82.30
2022-10-06T01:39:58.184Z,82.41
2022-10-06T01:41:00.201Z,82.42
2022-10-06T01:42:10.433Z,82.22
2022-10-06T01:43:12.852Z,82.21
2022-10-06T01:44:15.969Z,82.29
2022-10-06T01:45:19.528Z,82.49
2022-10-06T01:46:23.577Z,82.52
2022-10-06T01:47:26.582Z,82.26
2022-10-06T01:48:29.841Z,82.36
2022-10-06T01:49:31.666Z,82.35
2022-10-06T01:50:34.262Z,82.51
2022-10-06T01:51:35.778Z,82.68
2022-10-06T01:52:38.567Z,82.45
2022-10-06T01:53:40.128Z,82.42
2022-10-06T01:54:43.947Z,82.48
2022-10-06T01:55:46.327Z,82.31
2022-10-06T01:56:48.862Z,82.20
2022-10-06T01:57:53.567Z,81.98
2022-10-06T01:58:56.551Z,81.97
2022-10-06T01:59:58.294Z,81.92
2022-10-06T02:01:05.881Z,81.96
2022-10-06T02:02:07.903Z,82.00
2022-10-06T02:03:10.530Z,81.75
2022-10-06T02:04:12.270Z,82.18
2022-10-06T02:05:15.599Z,81.92
2022-10-06T02:06:22.485Z,81.85
2022-10-06T02:07:25.053Z,82.01
2022-10-06T02:08:27.017Z,81.90
2022-10-06T02:09:29.748Z,82.05
2022-10-06T02:10:32.590Z,82.14
2022-10-06T02:11:35.384Z,81.94
2022-10-06T02:12:36.941Z,82.39
2022-10-06T02:13:39.737Z,82.25
2022-10-06T02:14:41.357Z,82.23
2022-10-06T02:15:43.892Z,82.10
2022-10-06T02:16:45.745Z,82.27
2022-10-06T02:17:48.408Z,82.60
2022-10-06T02:18:50.020Z,82.42
2022-10-06T02:19:52.643Z,82.67
2022-10-06T02:20:54.170Z,82.50
2022-10-06T02:21:58.152Z,82.78
2022-10-06T02:22:59.722Z,82.90
2022-10-06T02:24:02.350Z,82.63
2022-10-06T02:25:05.715Z,82.81
2022-10-06T02:26:09.723Z,83.03
2022-10-06T02:27:11.249Z,82.95
2022-10-06T02:28:13.905Z,83.06
2022-10-06T02:29:15.569Z,83.09
2022-10-06T02:30:18.317Z,83.15
2022-10-06T02:31:20.360Z,83.15
2022-10-06T02:32:23.354Z,83.35
2022-10-06T02:33:24.936Z,83.53
2022-10-06T02:34:27.744Z,83.76
2022-10-06T02:35:29.270Z,83.48
2022-10-06T02:36:31.721Z,83.62
2022-10-06T02:37:33.987Z,83.55
2022-10-06T02:38:36.542Z,83.65
2022-10-06T02:39:38.270Z,83.56
2022-10-06T02:40:41.291Z,83.94
2022-10-06T02:41:44.276Z,83.94
2022-10-06T02:42:46.743Z,83.82
2022-10-06T02:43:48.305Z,83.88
2022-10-06T02:44:52.100Z,83.87
2022-10-06T02:45:55.872Z,84.11
2022-10-06T02:46:59.060Z,83.87
2022-10-06T02:48:00.561Z,84.08
2022-10-06T02:49:03.236Z,84.02
2022-10-06T02:50:07.391Z,84.06
2022-10-06T02:51:12.903Z,84.02
2022-10-06T02:52:15.359Z,83.72
2022-10-06T02:53:17.873Z,83.97
2022-10-06T02:54:19.412Z,84.01
2022-10-06T02:55:22.212Z,83.99
2022-10-06T02:56:25.495Z,83.66
2022-10-06T02:57:29.395Z,84.02
2022-10-06T02:58:31.826Z,83.75
2022-10-06T02:59:35.848Z,83.70
2022-10-06T03:00:38.136Z,83.51
2022-10-06T03:01:40.722Z,83.55
2022-10-06T03:02:42.390Z,83.70
2022-10-06T03:03:46.609Z,83.42
2022-10-06T03:04:48.201Z,83.33
2022-10-06T03:05:50.686Z,83.61
2022-10-06T03:06:52.257Z,83.54
2022-10-06T03:07:54.731Z,83.35
2022-10-06T03:08:58.441Z,83.30
2022-10-06T03:10:01.072Z,83.27
2022-10-06T03:11:03.562Z,83.48
2022-10-06T03:12:06.216Z,83.25
2022-10-06T03:13:09.113Z,83.37
2022-10-06T03:14:11.980Z,83.30
2022-10-06T03:15:13.885Z,83.27
2022-10-06T03:16:18.380Z,83.29
2022-10-06T03:17:19.919Z,83.18
2022-10-06T03:18:22.764Z,83.20
2022-10-06T03:19:24.749Z,83.15
2022-10-06T03:20:27.862Z,83.18
2022-10-06T03:21:31.198Z,83.19
2022-10-06T03:22:34.005Z,83.21
2022-10-06T03:23:35.999Z,83.09
2022-10-06T03:24:38.560Z,82.84
2022-10-06T03:25:40.055Z,83.11
2022-10-06T03:26:45.082Z,83.17
2022-10-06T03:27:46.620Z,82.98
2022-10-06T03:28:50.521Z,82.91
2022-10-06T03:29:52.395Z,82.87
2022-10-06T03:30:54.940Z,82.85
2022-10-06T03:31:56.966Z,82.90
2022-10-06T03:33:01.671Z,82.66
2022-10-06T03:34:03.520Z,82.65
2022-10-06T03:35:06.797Z,82.64
2022-10-06T03:36:12.936Z,82.65
2022-10-06T03:37:14.542Z,82.44
2022-10-06T03:38:17.052Z,82.27
2022-10-06T03:39:18.831Z,82.21
2022-10-06T03:40:21.353Z,82.48
2022-10-06T03:41:25.851Z,82.18
2022-10-06T03:42:32.131Z,82.52
2022-10-06T03:43:33.906Z,82.27
2022-10-06T03:44:41.332Z,82.30
2022-10-06T03:45:43.010Z,82.39
2022-10-06T03:46:45.925Z,82.36
2022-10-06T03:47:47.572Z,82.02
2022-10-06T03:48:51.938Z,82.22
2022-10-06T03:49:54.432Z,82.28
2022-10-06T03:50:57.483Z,82.05
2022-10-06T03:52:00.184Z,81.74
2022-10-06T03:53:01.675Z,81.96
2022-10-06T03:54:04.665Z,81.91
2022-10-06T03:55:06.763Z,81.97
2022-10-06T03:56:12.146Z,81.94
2022-10-06T03:57:13.758Z,82.07
2022-10-06T03:58:18.596Z,82.01
2022-10-06T03:59:20.194Z,81.88
2022-10-06T04:00:24.025Z,81.70
2022-10-06T04:01:27.606Z,82.11
2022-10-06T04:02:30.239Z,81.85
2022-10-06T04:03:32.489Z,82.07
2022-10-06T04:04:35.009Z,81.74
2022-10-06T04:05:36.504Z,81.73
2022-10-06T04:06:41.393Z,82.08
2022-10-06T04:07:42.982Z,81.88
2022-10-06T04:08:47.013Z,81.86
2022-10-06T04:09:48.540Z,81.58
2022-10-06T04:10:51.291Z,81.53
2022-10-06T04:11:52.984Z,81.61
2022-10-06T04:12:55.521Z,81.50
2022-10-06T04:14:00.379Z,81.41
2022-10-06T04:15:02.902Z,81.33
2022-10-06T04:16:15.243Z,81.58
2022-10-06T04:17:17.826Z,81.42
2022-10-06T04:18:19.483Z,81.45
2022-10-06T04:19:21.984Z,81.29
2022-10-06T04:20:23.638Z,81.25
2022-10-06T04:21:27.315Z,81.24
2022-10-06T04:22:29.038Z,81.21
2022-10-06T04:23:31.787Z,80.93
2022-10-06T04:24:34.330Z,81.35
2022-10-06T04:25:35.918Z,81.15
2022-10-06T04:26:40.506Z,81.11
2022-10-06T04:32:51.817Z,80.81
2022-10-06T04:33:55.340Z,80.92
2022-10-06T04:34:57.907Z,80.87
2022-10-06T04:36:00.936Z,80.84
2022-10-06T04:37:03.988Z,80.64
2022-10-06T04:38:05.602Z,80.98
2022-10-06T04:39:10.146Z,80.84
2022-10-06T04:40:12.168Z,80.73
2022-10-06T04:41:16.501Z,80.62
2022-10-06T04:42:18.079Z,80.69
2022-10-06T04:43:20.597Z,80.58
2022-10-06T04:44:22.483Z,80.60
2022-10-06T04:45:25.006Z,80.55
2022-10-06T04:46:44.067Z,80.38
2022-10-06T04:52:56.017Z,80.08
2022-10-06T04:53:57.555Z,80.05
2022-10-06T04:55:00.032Z,80.02
2022-10-06T04:56:03.701Z,79.98
2022-10-06T04:57:06.613Z,79.83
2022-10-06T04:58:08.546Z,80.26
2022-10-06T04:59:11.149Z,80.03
2022-10-06T05:00:25.256Z,79.92
2022-10-06T05:01:29.708Z,79.92
2022-10-06T05:02:31.398Z,79.83
2022-10-06T05:03:33.943Z,79.70
2022-10-06T05:04:35.467Z,79.76
2022-10-06T05:05:38.045Z,79.64
2022-10-06T05:06:41.422Z,79.48
2022-10-06T05:07:44.909Z,79.49
2022-10-06T05:08:51.046Z,79.53
2022-10-06T05:09:53.518Z,79.63
2022-10-06T05:11:00.317Z,79.73
2022-10-06T05:12:02.944Z,79.28
2022-10-06T05:13:05.939Z,79.36
2022-10-06T05:14:08.573Z,79.44
2022-10-06T05:15:10.860Z,79.45
2022-10-06T05:16:15.971Z,79.31
2022-10-06T05:17:17.595Z,79.25
2022-10-06T05:18:20.130Z,79.05
2022-10-06T05:19:21.663Z,79.22
2022-10-06T05:20:24.114Z,79.34
2022-10-06T05:21:27.998Z,79.05
2022-10-06T05:27:39.673Z,78.82
2022-10-06T05:28:41.414Z,78.82
2022-10-06T05:29:43.990Z,78.61
2022-10-06T05:30:55.803Z,78.86
2022-10-06T05:31:58.629Z,78.57
2022-10-06T05:33:01.256Z,78.85
2022-10-06T05:34:02.798Z,78.46
2022-10-06T05:35:06.233Z,78.61
2022-10-06T05:36:10.648Z,78.58
2022-10-06T05:37:13.157Z,78.75
2022-10-06T05:38:14.742Z,78.85
2022-10-06T05:39:17.353Z,78.61
2022-10-06T05:40:18.942Z,78.72
2022-10-06T05:41:23.935Z,78.76
2022-10-06T05:42:29.555Z,78.70
2022-10-06T05:43:34.736Z,78.63
2022-10-06T05:44:37.263Z,78.62
2022-10-06T05:45:38.855Z,78.58
2022-10-06T05:46:41.485Z,78.73
2022-10-06T05:47:43.004Z,78.81
2022-10-06T05:48:46.697Z,78.61
2022-10-06T05:49:48.194Z,78.58
2022-10-06T05:50:59.254Z,78.74
2022-10-06T05:52:02.464Z,78.79
2022-10-06T05:53:06.084Z,78.53
2022-10-06T05:54:08.848Z,78.62
2022-10-06T05:55:10.613Z,78.26
2022-10-06T05:56:15.293Z,78.56
2022-10-06T05:57:18.013Z,78.49
2022-10-06T05:58:22.329Z,78.35
2022-10-06T05:59:31.475Z,78.53
2022-10-06T06:00:36.330Z,78.23
2022-10-06T06:01:40.723Z,78.49
2022-10-06T06:02:43.335Z,78.27
2022-10-06T06:03:49.763Z,78.60
2022-10-06T06:04:52.311Z,78.53
2022-10-06T06:05:53.843Z,78.58
2022-10-06T06:06:56.338Z,78.71
2022-10-06T06:07:57.888Z,78.57
2022-10-06T06:09:02.291Z,78.40
2022-10-06T06:10:04.955Z,78.52
2022-10-06T06:11:08.447Z,78.41
2022-10-06T06:12:10.939Z,78.52
2022-10-06T06:13:12.455Z,78.53
2022-10-06T06:14:16.237Z,78.53
2022-10-06T06:15:52.297Z,78.66
2022-10-06T06:16:56.585Z,78.42
2022-10-06T06:18:01.171Z,78.39
2022-10-06T06:19:03.093Z,78.47
2022-10-06T06:20:06.560Z,78.67
2022-10-06T06:21:10.034Z,78.31
2022-10-06T06:22:12.803Z,78.65
2022-10-06T06:23:14.326Z,78.35
2022-10-06T06:24:17.690Z,78.30
2022-10-06T06:25:19.338Z,78.34
2022-10-06T06:26:24.366Z,78.21
2022-10-06T06:37:44.950Z,78.05
2022-10-06T06:38:49.744Z,78.21
2022-10-06T06:39:52.176Z,78.53
2022-10-06T06:40:53.678Z,78.51
2022-10-06T06:41:56.197Z,78.50
2022-10-06T06:42:57.753Z,78.57
2022-10-06T06:44:00.286Z,78.15
2022-10-06T06:45:01.945Z,78.18
2022-10-06T06:46:05.282Z,78.09
2022-10-06T06:47:07.009Z,78.01
2022-10-06T06:48:15.368Z,78.19
2022-10-06T06:49:20.480Z,78.13
2022-10-06T06:50:22.060Z,77.69
2022-10-06T06:51:24.767Z,78.08
2022-10-06T06:52:26.347Z,77.95
2022-10-06T06:53:30.161Z,78.00
2022-10-06T06:54:31.670Z,77.87
2022-10-06T06:55:34.300Z,77.94
2022-10-06T06:56:36.143Z,78.06
2022-10-06T06:57:38.686Z,77.75
2022-10-06T06:58:47.307Z,77.66
2022-10-06T06:59:49.775Z,77.63
2022-10-06T07:00:51.495Z,77.55
2022-10-06T07:01:54.174Z,77.48
2022-10-06T07:03:00.383Z,77.60
2022-10-06T07:04:02.930Z,77.51
2022-10-06T07:05:05.427Z,77.30
2022-10-06T07:06:09.739Z,77.29
2022-10-06T07:07:12.123Z,77.00
2022-10-06T07:08:16.035Z,77.20
2022-10-06T07:09:20.703Z,76.77
2022-10-06T07:10:23.187Z,77.11
2022-10-06T07:11:26.992Z,77.09
2022-10-06T07:12:29.448Z,77.04
2022-10-06T07:13:30.966Z,76.95
2022-10-06T07:14:33.489Z,76.98
2022-10-06T07:15:53.708Z,76.94
2022-10-06T07:17:13.973Z,77.01
2022-10-06T07:18:34.358Z,76.90
2022-10-06T07:19:54.709Z,76.96
2022-10-06T07:21:14.918Z,76.83
2022-10-06T07:22:38.200Z,76.74
2022-10-06T07:23:58.372Z,76.79
2022-10-06T07:25:07.830Z,76.66
2022-10-06T07:26:10.398Z,76.90
2022-10-06T07:27:12.819Z,76.54
2022-10-06T07:28:16.904Z,76.73
2022-10-06T07:29:19.821Z,76.54
2022-10-06T07:30:24.434Z,76.55
2022-10-06T07:31:28.011Z,76.36
2022-10-06T07:32:31.222Z,76.54
2022-10-06T07:33:32.790Z,76.45
2022-10-06T07:34:36.900Z,76.37
2022-10-06T07:35:38.873Z,76.29
2022-10-06T07:36:41.356Z,76.36
2022-10-06T07:37:44.290Z,76.07
2022-10-06T07:38:47.694Z,76.23
2022-10-06T07:39:49.495Z,76.21
2022-10-06T07:41:17.825Z,76.12
2022-10-06T07:42:19.515Z,76.18
2022-10-06T07:43:21.073Z,76.06
2022-10-06T07:44:23.547Z,76.04
2022-10-06T07:45:38.984Z,75.92
2022-10-06T07:46:42.416Z,76.01
2022-10-06T07:47:43.933Z,75.65
2022-10-06T07:48:49.124Z,75.60
2022-10-06T07:49:50.825Z,75.42
2022-10-06T07:50:53.874Z,75.67
2022-10-06T07:51:55.505Z,75.52
2022-10-06T07:52:58.050Z,75.46
2022-10-06T07:54:00.532Z,75.47
2022-10-06T07:55:02.162Z,75.37
2022-10-06T07:56:07.782Z,75.58
2022-10-06T07:57:10.265Z,75.45
2022-10-06T07:58:14.640Z,75.20
2022-10-06T07:59:19.601Z,75.45
2022-10-06T08:00:22.476Z,75.44
2022-10-06T08:01:26.921Z,75.17
2022-10-06T08:02:31.461Z,75.30
2022-10-06T08:03:38.205Z,75.55
2022-10-06T08:04:39.698Z,75.24
2022-10-06T08:05:42.217Z,75.33
2022-10-06T08:06:44.392Z,75.45
2022-10-06T08:07:47.231Z,75.04
2022-10-06T08:08:53.180Z,75.47
2022-10-06T08:09:55.195Z,75.09
2022-10-06T08:11:01.667Z,74.80
2022-10-06T08:12:24.927Z,75.11
2022-10-06T08:13:28.045Z,74.84
2022-10-06T08:14:30.641Z,74.82
2022-10-06T08:15:33.265Z,74.70
2022-10-06T08:16:36.223Z,74.49
2022-10-06T08:17:38.386Z,74.66
2022-10-06T08:18:46.630Z,74.59
2022-10-06T08:19:48.780Z,74.66
2022-10-06T08:20:51.686Z,74.67
2022-10-06T08:21:58.973Z,74.76
2022-10-06T08:23:12.199Z,74.82
2022-10-06T08:24:14.820Z,74.71
2022-10-06T08:25:16.977Z,74.69
2022-10-06T08:26:21.575Z,74.52
2022-10-06T08:27:25.141Z,74.50
2022-10-06T08:28:30.285Z,74.34
2022-10-06T08:29:31.918Z,74.38
2022-10-06T08:30:34.576Z,74.27
2022-10-06T08:31:37.343Z,74.19
2022-10-06T08:37:23.625Z,73.77
2022-10-06T08:38:27.254Z,73.94
2022-10-06T08:39:37.637Z,73.86
2022-10-06T08:40:41.874Z,73.74
2022-10-06T08:41:53.092Z,73.73
2022-10-06T08:43:01.022Z,73.97
2022-10-06T08:44:08.299Z,73.71
2022-10-06T08:45:15.574Z,73.47
2022-10-06T08:46:22.509Z,73.82
2022-10-06T08:47:30.434Z,73.57
2022-10-06T08:48:38.646Z,73.70
2022-10-06T08:49:44.367Z,73.64
2022-10-06T08:50:54.372Z,73.13
2022-10-06T08:52:04.730Z,73.34
2022-10-06T08:53:18.831Z,73.18
2022-10-06T08:54:29.830Z,73.46
2022-10-06T08:55:38.879Z,73.13
2022-10-06T08:56:51.907Z,73.01
2022-10-06T08:58:07.160Z,72.98
2022-10-06T08:59:10.563Z,73.18
2022-10-06T09:00:13.678Z,73.09
2022-10-06T09:01:23.344Z,73.00
2022-10-06T09:02:30.011Z,72.98
2022-10-06T09:03:31.631Z,72.89
2022-10-06T09:04:35.049Z,72.85
2022-10-06T09:05:37.320Z,72.86
2022-10-06T09:06:46.936Z,72.88
2022-10-06T09:08:00.583Z,72.56
2022-10-06T09:10:32.448Z,72.45
2022-10-06T09:12:49.056Z,72.37
2022-10-06T09:13:57.107Z,72.34
2022-10-06T09:15:09.602Z,72.42
2022-10-06T09:16:16.961Z,72.25
2022-10-06T09:17:26.109Z,72.00
2022-10-06T09:18:49.783Z,72.01
2022-10-06T09:19:59.666Z,72.04
2022-10-06T09:21:02.867Z,71.96
2022-10-06T09:22:07.796Z,71.87
2022-10-06T09:23:14.772Z,71.84
2022-10-06T09:24:19.665Z,71.65
2022-10-06T09:25:28.620Z,71.62
2022-10-06T09:26:32.118Z,71.42
2022-10-06T09:27:36.532Z,70.95
2022-10-06T09:28:38.091Z,70.96
2022-10-06T09:29:41.953Z,71.07
2022-10-06T09:30:44.418Z,70.81
2022-10-06T09:31:50.161Z,70.75
2022-10-06T09:32:59.247Z,70.62
2022-10-06T09:34:04.760Z,70.59
2022-10-06T09:35:19.719Z,70.63
2022-10-06T09:36:22.308Z,70.72
2022-10-06T09:37:24.923Z,70.41
2022-10-06T09:38:47.611Z,70.26
2022-10-06T09:39:51.819Z,70.53
2022-10-06T09:40:54.407Z,70.37
2022-10-06T09:42:02.756Z,70.52
2022-10-06T09:43:16.530Z,70.29
2022-10-06T09:44:24.651Z,70.18
2022-10-06T09:45:31.333Z,70.40
2022-10-06T09:46:35.893Z,70.10
2022-10-06T09:47:45.344Z,69.81
2022-10-06T09:48:47.250Z,69.82
2022-10-06T09:50:03.661Z,69.49
2022-10-06T09:51:14.642Z,69.26
2022-10-06T09:52:18.282Z,69.20
2022-10-06T09:53:21.867Z,69.26
2022-10-06T09:54:24.336Z,69.26
2022-10-06T09:55:29.680Z,69.18
2022-10-06T09:56:33.447Z,68.82
2022-10-06T09:57:47.605Z,68.92
2022-10-06T09:58:57.405Z,68.79
2022-10-06T10:00:00.018Z,68.85
2022-10-06T10:01:07.668Z,68.50
2022-10-06T10:02:31.479Z,68.41
2022-10-06T10:04:08.490Z,68.46
2022-10-06T10:05:20.899Z,68.20
2022-10-06T10:06:26.089Z,68.03
2022-10-06T10:07:30.939Z,67.87
2022-10-06T10:08:32.579Z,67.87
2022-10-06T10:09:35.287Z,67.74
2022-10-06T10:10:37.603Z,67.60
2022-10-06T10:12:02.558Z,67.74
2022-10-06T10:13:18.849Z,67.52
2022-10-06T10:14:20.492Z,67.23
2022-10-06T10:15:31.140Z,66.76
2022-10-06T10:16:36.842Z,66.54
2022-10-06T10:17:47.833Z,66.25
2022-10-06T10:18:50.948Z,65.98
2022-10-06T10:19:55.281Z,65.68
2022-10-06T10:21:00.114Z,65.18
2022-10-06T10:22:04.611Z,64.89
2022-10-06T10:23:21.779Z,64.52
2022-10-06T10:24:47.560Z,64.08
2022-10-06T10:26:17.417Z,63.88
2022-10-06T10:27:23.689Z,63.79
2022-10-06T10:28:46.808Z,63.53
2022-10-06T10:29:59.479Z,63.26
2022-10-06T10:31:12.645Z,63.06
2022-10-06T10:32:21.768Z,63.02
2022-10-06T10:33:32.812Z,62.84
2022-10-06T10:34:59.602Z,62.66
2022-10-06T10:36:06.174Z,62.41
2022-10-06T10:37:12.466Z,62.10
2022-10-06T10:38:19.978Z,61.90
2022-10-06T10:39:31.133Z,61.76
2022-10-06T10:40:37.873Z,61.52
2022-10-06T10:43:07.036Z,61.34
2022-10-06T10:44:10.603Z,61.32
2022-10-06T10:47:38.319Z,60.77
2022-10-06T10:48:47.037Z,60.46
2022-10-06T10:50:03.096Z,60.14
2022-10-06T10:51:10.579Z,59.98
2022-10-06T10:52:17.582Z,60.03
2022-10-06T10:53:27.754Z,59.84
2022-10-06T10:54:38.299Z,59.76
2022-10-06T10:55:42.832Z,59.72
2022-10-06T10:56:48.979Z,59.48
2022-10-06T10:57:53.929Z,59.30
2022-10-06T10:59:05.227Z,58.81
2022-10-06T11:01:29.940Z,58.32
2022-10-06T11:02:33.128Z,58.59
2022-10-06T11:03:40.676Z,58.44
2022-10-06T11:04:47.097Z,58.27
2022-10-06T11:06:06.355Z,58.35
2022-10-06T11:07:21.052Z,58.08
2022-10-06T11:08:29.654Z,57.88
2022-10-06T11:09:39.842Z,58.14
2022-10-06T11:10:48.672Z,58.33
2022-10-06T11:12:01.981Z,58.11
2022-10-06T11:13:16.949Z,58.21
2022-10-06T11:14:35.716Z,58.21
2022-10-06T11:15:55.585Z,58.20
2022-10-06T11:17:03.658Z,58.16
2022-10-06T11:18:21.423Z,58.21
2022-10-06T11:19:34.915Z,57.83
2022-10-06T11:20:44.191Z,57.80
2022-10-06T11:21:57.171Z,57.62
2022-10-06T11:23:18.508Z,57.65
2022-10-06T11:24:31.718Z,57.37
2022-10-06T11:25:40.486Z,57.37
2022-10-06T11:27:27.548Z,57.25
2022-10-06T11:28:40.299Z,57.29
2022-10-06T11:29:55.073Z,57.33
2022-10-06T11:31:01.088Z,57.32
2022-10-06T11:32:16.304Z,57.29
2022-10-06T11:33:23.663Z,57.24
2022-10-06T11:34:26.616Z,57.06
2022-10-06T11:35:39.942Z,56.80
2022-10-06T11:36:47.630Z,56.79
2022-10-06T11:37:56.023Z,56.64
2022-10-06T11:39:05.591Z,56.54
2022-10-06T11:40:38.159Z,56.66
2022-10-06T11:41:46.483Z,56.57
2022-10-06T11:42:55.801Z,56.46
2022-10-06T11:44:04.328Z,56.19
2022-10-06T11:45:14.081Z,56.32
2022-10-06T11:46:32.281Z,56.30
2022-10-06T11:47:54.275Z,56.27
2022-10-06T11:49:30.123Z,56.50
2022-10-06T11:50:36.551Z,56.56
2022-10-06T11:51:38.745Z,56.47
2022-10-06T11:52:53.568Z,56.09
2022-10-06T11:53:56.615Z,56.40
2022-10-06T11:55:08.694Z,56.09
2022-10-06T11:56:45.396Z,56.26
2022-10-06T11:58:30.236Z,56.34
2022-10-06T11:59:32.539Z,56.27
2022-10-06T12:00:43.247Z,56.27
2022-10-06T12:01:53.711Z,56.27
2022-10-06T12:02:56.558Z,56.40
2022-10-06T12:04:14.380Z,56.35
2022-10-06T12:07:01.410Z,56.33
2022-10-06T12:08:16.632Z,56.10
2022-10-06T12:09:53.298Z,56.34
2022-10-06T12:10:56.425Z,56.19
2022-10-06T12:12:01.323Z,55.95
2022-10-06T12:14:01.214Z,55.54
2022-10-06T12:17:55.884Z,55.79
2022-10-06T12:19:11.911Z,55.79
2022-10-06T12:20:20.017Z,55.90
2022-10-06T12:22:01.000Z,55.99
2022-10-06T12:23:18.014Z,55.93
2022-10-06T12:24:28.783Z,55.87
2022-10-06T12:25:38.203Z,55.70
2022-10-06T12:26:54.961Z,55.85
2022-10-06T12:28:10.925Z,55.79
2022-10-06T12:29:27.693Z,55.65
2022-10-06T12:30:43.563Z,55.61
2022-10-06T12:31:53.276Z,55.75
2022-10-06T12:32:57.749Z,55.96
2022-10-06T12:33:59.972Z,55.71
2022-10-06T12:35:13.381Z,55.37
2022-10-06T12:36:22.809Z,55.52
2022-10-06T12:37:39.648Z,55.30
2022-10-06T12:38:45.655Z,55.04
2022-10-06T12:39:47.271Z,54.86
2022-10-06T12:40:55.069Z,54.62
2022-10-06T12:42:01.759Z,54.11
2022-10-06T12:43:44.892Z,53.90
2022-10-06T12:44:49.898Z,53.83
2022-10-06T12:45:57.880Z,53.79
2022-10-06T12:47:05.390Z,53.70
2022-10-06T12:48:14.808Z,53.53
2022-10-06T12:49:36.692Z,53.19
2022-10-06T12:50:41.303Z,52.83
2022-10-06T12:51:44.931Z,52.69
2022-10-06T12:54:13.012Z,52.54
2022-10-06T12:55:35.660Z,52.52
2022-10-06T12:56:41.357Z,52.60
2022-10-06T12:57:49.098Z,52.47
2022-10-06T12:58:51.588Z,52.47
2022-10-06T12:59:53.329Z,52.33
2022-10-06T13:01:01.250Z,52.34
2022-10-06T13:02:09.952Z,51.98
2022-10-06T13:03:18.693Z,52.15
2022-10-06T13:04:34.441Z,52.10
2022-10-06T13:05:37.704Z,52.07
2022-10-06T13:06:49.299Z,52.18
2022-10-06T13:07:59.258Z,52.21
2022-10-06T13:09:13.738Z,52.35
2022-10-06T13:10:20.963Z,52.51
2022-10-06T13:11:26.973Z,52.42
2022-10-06T13:15:10.178Z,52.60
2022-10-06T13:16:14.102Z,52.41
2022-10-06T13:17:15.901Z,52.60
2022-10-06T13:18:21.339Z,52.62
2022-10-06T13:19:27.623Z,52.37
2022-10-06T13:20:39.285Z,52.55
2022-10-06T13:21:41.892Z,52.84
2022-10-06T13:22:43.478Z,52.51
2022-10-06T13:23:48.091Z,52.06
2022-10-06T13:24:59.052Z,52.22
2022-10-06T13:26:04.086Z,52.20
2022-10-06T13:27:06.070Z,52.35
2022-10-06T13:28:21.065Z,52.47
2022-10-06T13:29:26.413Z,52.50
2022-10-06T13:30:28.489Z,52.86
2022-10-06T13:31:33.335Z,52.88
2022-10-06T13:32:34.972Z,52.87
2022-10-06T13:33:40.906Z,52.91
2022-10-06T13:34:46.563Z,53.03
2022-10-06T13:35:51.295Z,52.88
2022-10-06T13:36:54.085Z,52.96
2022-10-06T13:37:55.883Z,53.15
2022-10-06T13:38:58.469Z,53.13
2022-10-06T13:40:02.054Z,53.31
2022-10-06T13:41:17.986Z,53.26
2022-10-06T13:42:21.268Z,53.39
2022-10-06T13:43:23.989Z,53.17
2022-10-06T13:44:34.642Z,53.05
2022-10-06T13:45:41.832Z,52.97
2022-10-06T13:46:48.980Z,52.77
2022-10-06T13:48:03.533Z,52.78
2022-10-06T13:49:17.760Z,52.72
2022-10-06T13:50:20.415Z,52.90
2022-10-06T13:51:25.545Z,52.80
2022-10-06T13:52:35.068Z,53.01
2022-10-06T13:53:36.706Z,52.75
2022-10-06T13:54:41.729Z,52.54
2022-10-06T13:55:50.813Z,52.59
2022-10-06T13:56:53.430Z,52.63
2022-10-06T13:58:09.892Z,52.62
2022-10-06T13:59:33.885Z,52.67
2022-10-06T14:00:49.308Z,52.68
2022-10-06T14:01:51.117Z,52.56
2022-10-06T14:02:56.596Z,52.32
2022-10-06T14:04:15.313Z,52.21
2022-10-06T14:05:26.889Z,52.39
2022-10-06T14:06:29.501Z,52.19
2022-10-06T14:07:31.615Z,52.01
2022-10-06T14:08:34.838Z,52.06
2022-10-06T14:09:37.426Z,51.68
2022-10-06T14:10:48.434Z,51.42
2022-10-06T14:11:52.502Z,51.30
2022-10-06T14:12:55.713Z,51.26
2022-10-06T14:14:03.259Z,51.36
2022-10-06T14:15:19.320Z,51.55
2022-10-06T14:16:24.863Z,51.35
2022-10-06T14:17:29.061Z,51.45
2022-10-06T14:18:39.368Z,51.33
2022-10-06T14:19:45.123Z,51.06
2022-10-06T14:20:49.073Z,51.23
2022-10-06T14:21:54.169Z,51.25
2022-10-06T14:22:56.814Z,51.15
2022-10-06T14:24:00.255Z,51.08
2022-10-06T14:25:12.271Z,50.91
2022-10-06T14:26:18.960Z,50.85
2022-10-06T14:27:20.494Z,50.67
2022-10-06T14:28:23.042Z,50.38
2022-10-06T14:29:26.414Z,50.43
2022-10-06T14:30:29.464Z,50.20
2022-10-06T14:31:33.949Z,50.13
2022-10-06T14:32:38.533Z,49.98
2022-10-06T14:33:42.041Z,49.93
2022-10-06T14:34:45.255Z,49.73
2022-10-06T14:35:48.439Z,49.87
2022-10-06T14:36:52.383Z,49.84
2022-10-06T14:37:53.880Z,50.00
2022-10-06T14:38:58.471Z,49.95
2022-10-06T14:40:03.455Z,49.74
2022-10-06T14:41:06.281Z,49.81
2022-10-06T14:42:10.447Z,49.74
2022-10-06T14:43:12.722Z,49.81
2022-10-06T14:44:16.063Z,49.53
2022-10-06T14:45:18.915Z,49.50
2022-10-06T14:47:34.751Z,49.39
2022-10-06T14:48:36.256Z,49.46
2022-10-06T14:50:49.374Z,49.46
2022-10-06T14:51:52.073Z,49.65
2022-10-06T14:52:54.333Z,49.37
2022-10-06T14:53:58.738Z,49.49
2022-10-06T14:57:41.996Z,49.00
2022-10-06T14:58:44.684Z,48.88
2022-10-06T14:59:47.600Z,48.78
2022-10-06T15:00:49.167Z,48.83
2022-10-06T15:01:51.813Z,48.72